sensor_id;sensor_type;location;lat;lon;timestamp;temperature;humidity
80232;DHT22;74189;42.124;24.752;2024-01-15T00:02:09;1.50;58.10
80232;DHT22;74189;42.124;24.752;2024-01-15T00:04:41;1.50;58.30
80232;DHT22;74189;42.124;24.752;2024-01-15T00:07:07;1.50;57.50
80232;DHT22;74189;42.124;24.752;2024-01-15T00:09:34;1.60;57.80
80232;DHT22;74189;42.124;24.752;2024-01-15T00:12:00;1.60;57.60
80232;DHT22;74189;42.124;24.752;2024-01-15T00:14:26;1.60;57.40
80232;DHT22;74189;42.124;24.752;2024-01-15T00:16:52;1.60;57.50
80232;DHT22;74189;42.124;24.752;2024-01-15T00:19:22;1.60;57.00
80232;DHT22;74189;42.124;24.752;2024-01-15T00:21:49;1.60;57.10
80232;DHT22;74189;42.124;24.752;2024-01-15T00:24:15;1.60;56.30
80232;DHT22;74189;42.124;24.752;2024-01-15T00:26:41;1.60;56.40
80232;DHT22;74189;42.124;24.752;2024-01-15T00:29:10;1.50;56.00
80232;DHT22;74189;42.124;24.752;2024-01-15T00:31:35;1.60;56.30
80232;DHT22;74189;42.124;24.752;2024-01-15T00:34:01;1.50;56.50
80232;DHT22;74189;42.124;24.752;2024-01-15T00:36:27;1.50;56.50
80232;DHT22;74189;42.124;24.752;2024-01-15T00:38:53;1.50;56.40
80232;DHT22;74189;42.124;24.752;2024-01-15T00:41:19;1.50;56.50
80232;DHT22;74189;42.124;24.752;2024-01-15T00:43:45;1.50;56.90
80232;DHT22;74189;42.124;24.752;2024-01-15T00:46:11;1.50;56.80
80232;DHT22;74189;42.124;24.752;2024-01-15T00:48:37;1.50;57.00
80232;DHT22;74189;42.124;24.752;2024-01-15T00:51:06;1.50;57.20
80232;DHT22;74189;42.124;24.752;2024-01-15T00:53:32;1.50;56.60
80232;DHT22;74189;42.124;24.752;2024-01-15T00:55:57;1.50;56.60
80232;DHT22;74189;42.124;24.752;2024-01-15T00:58:23;1.50;56.80
80232;DHT22;74189;42.124;24.752;2024-01-15T01:00:49;1.50;56.80
80232;DHT22;74189;42.124;24.752;2024-01-15T01:03:15;1.50;57.00
80232;DHT22;74189;42.124;24.752;2024-01-15T01:05:40;1.50;57.10
80232;DHT22;74189;42.124;24.752;2024-01-15T01:08:06;1.40;56.90
80232;DHT22;74189;42.124;24.752;2024-01-15T01:10:32;1.40;56.70
80232;DHT22;74189;42.124;24.752;2024-01-15T01:12:57;1.40;57.00
80232;DHT22;74189;42.124;24.752;2024-01-15T01:15:23;1.40;57.20
80232;DHT22;74189;42.124;24.752;2024-01-15T01:17:50;1.40;56.80
80232;DHT22;74189;42.124;24.752;2024-01-15T01:20:15;1.40;57.20
80232;DHT22;74189;42.124;24.752;2024-01-15T01:22:41;1.40;57.20
80232;DHT22;74189;42.124;24.752;2024-01-15T01:25:07;1.40;57.60
80232;DHT22;74189;42.124;24.752;2024-01-15T01:27:35;1.50;57.00
80232;DHT22;74189;42.124;24.752;2024-01-15T01:30:01;1.40;56.80
80232;DHT22;74189;42.124;24.752;2024-01-15T01:32:27;1.40;56.40
80232;DHT22;74189;42.124;24.752;2024-01-15T01:34:52;1.40;56.80
80232;DHT22;74189;42.124;24.752;2024-01-15T01:37:18;1.40;56.90
80232;DHT22;74189;42.124;24.752;2024-01-15T01:39:44;1.40;56.90
80232;DHT22;74189;42.124;24.752;2024-01-15T01:42:10;1.40;56.90
80232;DHT22;74189;42.124;24.752;2024-01-15T01:44:36;1.40;57.10
80232;DHT22;74189;42.124;24.752;2024-01-15T01:47:02;1.40;56.90
80232;DHT22;74189;42.124;24.752;2024-01-15T01:49:29;1.40;57.10
80232;DHT22;74189;42.124;24.752;2024-01-15T01:52:00;1.40;57.30
80232;DHT22;74189;42.124;24.752;2024-01-15T01:54:29;1.40;57.00
80232;DHT22;74189;42.124;24.752;2024-01-15T01:56:55;1.40;57.10
80232;DHT22;74189;42.124;24.752;2024-01-15T01:59:22;1.40;56.80
80232;DHT22;74189;42.124;24.752;2024-01-15T02:01:49;1.40;56.60
80232;DHT22;74189;42.124;24.752;2024-01-15T02:04:16;1.40;56.70
80232;DHT22;74189;42.124;24.752;2024-01-15T02:06:42;1.40;56.20
80232;DHT22;74189;42.124;24.752;2024-01-15T02:09:08;1.40;56.40
80232;DHT22;74189;42.124;24.752;2024-01-15T02:11:34;1.40;56.40
80232;DHT22;74189;42.124;24.752;2024-01-15T02:14:01;1.40;56.20
80232;DHT22;74189;42.124;24.752;2024-01-15T02:16:26;1.40;56.70
80232;DHT22;74189;42.124;24.752;2024-01-15T02:18:52;1.40;57.30
80232;DHT22;74189;42.124;24.752;2024-01-15T02:21:17;1.40;56.70
80232;DHT22;74189;42.124;24.752;2024-01-15T02:23:43;1.40;56.40
80232;DHT22;74189;42.124;24.752;2024-01-15T02:26:09;1.40;56.70
80232;DHT22;74189;42.124;24.752;2024-01-15T02:28:35;1.40;56.30
80232;DHT22;74189;42.124;24.752;2024-01-15T02:31:00;1.40;56.40
80232;DHT22;74189;42.124;24.752;2024-01-15T02:33:26;1.20;56.20
80232;DHT22;74189;42.124;24.752;2024-01-15T02:35:52;1.30;57.10
80232;DHT22;74189;42.124;24.752;2024-01-15T02:38:18;1.10;57.00
80232;DHT22;74189;42.124;24.752;2024-01-15T02:40:44;1.10;57.70
80232;DHT22;74189;42.124;24.752;2024-01-15T02:43:10;1.20;57.80
80232;DHT22;74189;42.124;24.752;2024-01-15T02:45:37;1.30;57.80
80232;DHT22;74189;42.124;24.752;2024-01-15T02:48:03;1.40;57.90
80232;DHT22;74189;42.124;24.752;2024-01-15T02:50:28;1.40;57.20
80232;DHT22;74189;42.124;24.752;2024-01-15T02:52:54;1.40;57.00
80232;DHT22;74189;42.124;24.752;2024-01-15T02:55:20;1.40;57.40
80232;DHT22;74189;42.124;24.752;2024-01-15T02:57:45;1.50;57.70
80232;DHT22;74189;42.124;24.752;2024-01-15T03:00:11;1.60;56.80
80232;DHT22;74189;42.124;24.752;2024-01-15T03:02:38;1.60;56.80
80232;DHT22;74189;42.124;24.752;2024-01-15T03:05:10;1.70;56.50
80232;DHT22;74189;42.124;24.752;2024-01-15T03:07:37;1.70;57.10
80232;DHT22;74189;42.124;24.752;2024-01-15T03:10:03;1.70;57.30
80232;DHT22;74189;42.124;24.752;2024-01-15T03:12:28;1.70;57.40
80232;DHT22;74189;42.124;24.752;2024-01-15T03:14:57;1.70;57.20
80232;DHT22;74189;42.124;24.752;2024-01-15T03:17:22;1.80;57.40
80232;DHT22;74189;42.124;24.752;2024-01-15T03:19:48;1.80;57.60
80232;DHT22;74189;42.124;24.752;2024-01-15T03:22:15;1.80;57.70
80232;DHT22;74189;42.124;24.752;2024-01-15T03:24:41;1.80;57.20
80232;DHT22;74189;42.124;24.752;2024-01-15T03:27:06;1.90;57.30
80232;DHT22;74189;42.124;24.752;2024-01-15T03:29:32;1.80;57.50
80232;DHT22;74189;42.124;24.752;2024-01-15T03:31:58;1.90;57.90
80232;DHT22;74189;42.124;24.752;2024-01-15T03:34:23;1.90;58.00
80232;DHT22;74189;42.124;24.752;2024-01-15T03:36:49;1.90;58.00
80232;DHT22;74189;42.124;24.752;2024-01-15T03:39:15;1.90;58.00
80232;DHT22;74189;42.124;24.752;2024-01-15T03:41:40;1.90;57.80
80232;DHT22;74189;42.124;24.752;2024-01-15T03:44:06;1.60;57.80
80232;DHT22;74189;42.124;24.752;2024-01-15T03:46:32;1.10;58.80
80232;DHT22;74189;42.124;24.752;2024-01-15T03:48:58;1.30;59.70
80232;DHT22;74189;42.124;24.752;2024-01-15T03:51:23;1.30;59.60
80232;DHT22;74189;42.124;24.752;2024-01-15T03:53:49;1.30;59.50
80232;DHT22;74189;42.124;24.752;2024-01-15T03:56:15;1.40;60.00
80232;DHT22;74189;42.124;24.752;2024-01-15T03:58:40;1.50;59.10
80232;DHT22;74189;42.124;24.752;2024-01-15T04:01:09;1.50;58.70
80232;DHT22;74189;42.124;24.752;2024-01-15T04:03:36;1.60;58.60
80232;DHT22;74189;42.124;24.752;2024-01-15T04:06:01;1.70;58.50
80232;DHT22;74189;42.124;24.752;2024-01-15T04:08:27;1.70;58.30
80232;DHT22;74189;42.124;24.752;2024-01-15T04:10:53;1.70;58.10
80232;DHT22;74189;42.124;24.752;2024-01-15T04:13:18;1.60;58.30
80232;DHT22;74189;42.124;24.752;2024-01-15T04:15:44;1.60;58.40
80232;DHT22;74189;42.124;24.752;2024-01-15T04:18:10;1.60;58.30
80232;DHT22;74189;42.124;24.752;2024-01-15T04:20:35;1.60;58.10
80232;DHT22;74189;42.124;24.752;2024-01-15T04:23:01;1.60;58.20
80232;DHT22;74189;42.124;24.752;2024-01-15T04:25:27;1.60;58.00
80232;DHT22;74189;42.124;24.752;2024-01-15T04:27:52;1.60;58.20
80232;DHT22;74189;42.124;24.752;2024-01-15T04:30:18;1.70;58.00
80232;DHT22;74189;42.124;24.752;2024-01-15T04:32:43;1.70;58.00
80232;DHT22;74189;42.124;24.752;2024-01-15T04:35:09;1.60;57.80
80232;DHT22;74189;42.124;24.752;2024-01-15T04:37:35;1.60;57.80
80232;DHT22;74189;42.124;24.752;2024-01-15T04:40:00;1.50;57.80
80232;DHT22;74189;42.124;24.752;2024-01-15T04:42:26;1.50;57.90
80232;DHT22;74189;42.124;24.752;2024-01-15T04:44:51;1.50;58.20
80232;DHT22;74189;42.124;24.752;2024-01-15T04:47:17;1.50;58.10
80232;DHT22;74189;42.124;24.752;2024-01-15T04:49:43;1.50;57.70
80232;DHT22;74189;42.124;24.752;2024-01-15T04:52:08;1.50;58.00
80232;DHT22;74189;42.124;24.752;2024-01-15T04:54:36;1.50;57.80
80232;DHT22;74189;42.124;24.752;2024-01-15T04:57:02;1.50;57.90
80232;DHT22;74189;42.124;24.752;2024-01-15T04:59:28;1.30;58.10
80232;DHT22;74189;42.124;24.752;2024-01-15T05:01:54;1.00;58.80
80232;DHT22;74189;42.124;24.752;2024-01-15T05:04:20;0.40;58.10
80232;DHT22;74189;42.124;24.752;2024-01-15T05:06:46;0.00;58.80
80232;DHT22;74189;42.124;24.752;2024-01-15T05:09:11;0.00;60.20
80232;DHT22;74189;42.124;24.752;2024-01-15T05:11:39;-0.20;59.80
80232;DHT22;74189;42.124;24.752;2024-01-15T05:14:04;-0.20;61.30
80232;DHT22;74189;42.124;24.752;2024-01-15T05:16:30;-0.40;61.60
80232;DHT22;74189;42.124;24.752;2024-01-15T05:18:56;-0.70;61.30
80232;DHT22;74189;42.124;24.752;2024-01-15T05:21:21;-0.80;63.60
80232;DHT22;74189;42.124;24.752;2024-01-15T05:23:47;-0.80;63.60
80232;DHT22;74189;42.124;24.752;2024-01-15T05:26:12;-1.00;64.20
80232;DHT22;74189;42.124;24.752;2024-01-15T05:28:40;-0.60;64.60
80232;DHT22;74189;42.124;24.752;2024-01-15T05:31:06;-0.40;64.80
80232;DHT22;74189;42.124;24.752;2024-01-15T05:33:31;-0.40;63.70
80232;DHT22;74189;42.124;24.752;2024-01-15T05:35:57;-0.50;62.10
80232;DHT22;74189;42.124;24.752;2024-01-15T05:38:24;-0.90;61.90
80232;DHT22;74189;42.124;24.752;2024-01-15T05:40:49;-0.70;63.20
80232;DHT22;74189;42.124;24.752;2024-01-15T05:43:15;-0.60;64.20
80232;DHT22;74189;42.124;24.752;2024-01-15T05:45:43;-0.40;64.20
80232;DHT22;74189;42.124;24.752;2024-01-15T05:48:10;-0.20;63.60
80232;DHT22;74189;42.124;24.752;2024-01-15T05:50:35;-0.30;62.20
80232;DHT22;74189;42.124;24.752;2024-01-15T05:53:01;-0.10;62.30
80232;DHT22;74189;42.124;24.752;2024-01-15T05:55:28;0.10;62.60
80232;DHT22;74189;42.124;24.752;2024-01-15T05:57:53;0.30;62.60
80232;DHT22;74189;42.124;24.752;2024-01-15T06:00:19;0.40;62.60
80232;DHT22;74189;42.124;24.752;2024-01-15T06:02:45;0.60;62.20
80232;DHT22;74189;42.124;24.752;2024-01-15T06:05:10;0.70;61.90
80232;DHT22;74189;42.124;24.752;2024-01-15T06:07:36;0.70;61.50
80232;DHT22;74189;42.124;24.752;2024-01-15T06:10:02;0.80;61.30
80232;DHT22;74189;42.124;24.752;2024-01-15T06:12:30;0.90;61.10
80232;DHT22;74189;42.124;24.752;2024-01-15T06:14:56;1.00;61.20
80232;DHT22;74189;42.124;24.752;2024-01-15T06:17:22;1.10;61.00
80232;DHT22;74189;42.124;24.752;2024-01-15T06:19:47;1.20;60.80
80232;DHT22;74189;42.124;24.752;2024-01-15T06:22:13;1.20;60.30
80232;DHT22;74189;42.124;24.752;2024-01-15T06:24:39;1.30;59.80
80232;DHT22;74189;42.124;24.752;2024-01-15T06:27:04;1.50;59.70
80232;DHT22;74189;42.124;24.752;2024-01-15T06:29:31;2.00;59.20
80232;DHT22;74189;42.124;24.752;2024-01-15T06:31:57;2.10;57.90
80232;DHT22;74189;42.124;24.752;2024-01-15T06:34:22;2.10;57.30
80232;DHT22;74189;42.124;24.752;2024-01-15T06:36:48;2.10;57.30
80232;DHT22;74189;42.124;24.752;2024-01-15T06:39:13;2.20;57.10
80232;DHT22;74189;42.124;24.752;2024-01-15T06:41:40;2.20;57.20
80232;DHT22;74189;42.124;24.752;2024-01-15T06:44:12;2.30;57.10
80232;DHT22;74189;42.124;24.752;2024-01-15T06:46:45;2.20;57.20
80232;DHT22;74189;42.124;24.752;2024-01-15T06:49:11;2.50;57.40
80232;DHT22;74189;42.124;24.752;2024-01-15T06:51:37;2.70;56.40
80232;DHT22;74189;42.124;24.752;2024-01-15T06:54:03;2.80;56.20
80232;DHT22;74189;42.124;24.752;2024-01-15T06:56:29;2.80;56.30
80232;DHT22;74189;42.124;24.752;2024-01-15T06:58:54;2.80;56.30
80232;DHT22;74189;42.124;24.752;2024-01-15T07:01:20;2.70;56.70
80232;DHT22;74189;42.124;24.752;2024-01-15T07:03:46;2.70;56.60
80232;DHT22;74189;42.124;24.752;2024-01-15T07:06:12;2.80;56.60
80232;DHT22;74189;42.124;24.752;2024-01-15T07:08:39;2.80;56.80
80232;DHT22;74189;42.124;24.752;2024-01-15T07:11:05;2.80;57.20
80232;DHT22;74189;42.124;24.752;2024-01-15T07:13:31;2.70;57.30
80232;DHT22;74189;42.124;24.752;2024-01-15T07:15:57;2.70;57.70
80232;DHT22;74189;42.124;24.752;2024-01-15T07:18:23;2.70;57.70
80232;DHT22;74189;42.124;24.752;2024-01-15T07:20:49;2.80;57.50
80232;DHT22;74189;42.124;24.752;2024-01-15T07:23:15;2.80;57.80
80232;DHT22;74189;42.124;24.752;2024-01-15T07:25:40;2.80;57.70
80232;DHT22;74189;42.124;24.752;2024-01-15T07:28:06;2.90;57.70
80232;DHT22;74189;42.124;24.752;2024-01-15T07:30:32;2.90;57.60
80232;DHT22;74189;42.124;24.752;2024-01-15T07:32:57;2.70;57.10
80232;DHT22;74189;42.124;24.752;2024-01-15T07:35:23;2.60;58.10
80232;DHT22;74189;42.124;24.752;2024-01-15T07:37:49;2.50;58.40
80232;DHT22;74189;42.124;24.752;2024-01-15T07:40:14;2.60;58.80
80232;DHT22;74189;42.124;24.752;2024-01-15T07:42:40;2.60;58.80
80232;DHT22;74189;42.124;24.752;2024-01-15T07:45:08;2.60;58.70
80232;DHT22;74189;42.124;24.752;2024-01-15T07:47:34;2.60;59.20
80232;DHT22;74189;42.124;24.752;2024-01-15T07:49:59;2.60;59.40
80232;DHT22;74189;42.124;24.752;2024-01-15T07:52:26;2.70;59.30
80232;DHT22;74189;42.124;24.752;2024-01-15T07:54:51;2.50;59.20
80232;DHT22;74189;42.124;24.752;2024-01-15T07:57:17;2.50;59.90
80232;DHT22;74189;42.124;24.752;2024-01-15T07:59:42;2.50;60.10
80232;DHT22;74189;42.124;24.752;2024-01-15T08:02:08;2.60;60.00
80232;DHT22;74189;42.124;24.752;2024-01-15T08:04:34;2.70;59.20
80232;DHT22;74189;42.124;24.752;2024-01-15T08:07:00;2.80;58.50
80232;DHT22;74189;42.124;24.752;2024-01-15T08:09:25;2.80;58.50
80232;DHT22;74189;42.124;24.752;2024-01-15T08:11:51;2.90;58.60
80232;DHT22;74189;42.124;24.752;2024-01-15T08:14:17;2.90;58.30
80232;DHT22;74189;42.124;24.752;2024-01-15T08:16:43;2.80;58.10
80232;DHT22;74189;42.124;24.752;2024-01-15T08:19:09;2.60;58.50
80232;DHT22;74189;42.124;24.752;2024-01-15T08:21:34;2.70;58.80
80232;DHT22;74189;42.124;24.752;2024-01-15T08:24:01;2.90;58.60
80232;DHT22;74189;42.124;24.752;2024-01-15T08:26:28;3.00;58.30
80232;DHT22;74189;42.124;24.752;2024-01-15T08:28:54;3.10;57.60
80232;DHT22;74189;42.124;24.752;2024-01-15T08:31:19;3.00;56.40
80232;DHT22;74189;42.124;24.752;2024-01-15T08:33:45;3.10;56.30
80232;DHT22;74189;42.124;24.752;2024-01-15T08:36:11;3.10;55.30
80232;DHT22;74189;42.124;24.752;2024-01-15T08:38:37;3.10;56.10
80232;DHT22;74189;42.124;24.752;2024-01-15T08:41:03;3.20;56.20
80232;DHT22;74189;42.124;24.752;2024-01-15T08:43:28;3.10;56.00
80232;DHT22;74189;42.124;24.752;2024-01-15T08:45:56;3.10;55.10
80232;DHT22;74189;42.124;24.752;2024-01-15T08:48:22;3.20;55.50
80232;DHT22;74189;42.124;24.752;2024-01-15T08:50:48;3.30;55.70
80232;DHT22;74189;42.124;24.752;2024-01-15T08:53:14;3.40;55.90
80232;DHT22;74189;42.124;24.752;2024-01-15T08:55:40;3.40;54.60
80232;DHT22;74189;42.124;24.752;2024-01-15T08:58:10;3.60;54.70
80232;DHT22;74189;42.124;24.752;2024-01-15T09:00:35;3.80;55.20
80232;DHT22;74189;42.124;24.752;2024-01-15T09:03:02;3.90;55.00
80232;DHT22;74189;42.124;24.752;2024-01-15T09:05:30;4.00;55.10
80232;DHT22;74189;42.124;24.752;2024-01-15T09:07:56;4.10;55.40
80232;DHT22;74189;42.124;24.752;2024-01-15T09:10:22;4.10;54.40
80232;DHT22;74189;42.124;24.752;2024-01-15T09:12:47;4.00;54.10
80232;DHT22;74189;42.124;24.752;2024-01-15T09:15:14;4.10;54.50
80232;DHT22;74189;42.124;24.752;2024-01-15T09:17:40;4.20;54.50
80232;DHT22;74189;42.124;24.752;2024-01-15T09:20:08;4.20;54.10
80232;DHT22;74189;42.124;24.752;2024-01-15T09:22:33;4.40;54.30
80232;DHT22;74189;42.124;24.752;2024-01-15T09:24:59;4.30;53.40
80232;DHT22;74189;42.124;24.752;2024-01-15T09:27:25;4.40;53.80
80232;DHT22;74189;42.124;24.752;2024-01-15T09:29:54;4.30;53.50
80232;DHT22;74189;42.124;24.752;2024-01-15T09:32:19;4.40;53.60
80232;DHT22;74189;42.124;24.752;2024-01-15T09:34:48;4.20;52.70
80232;DHT22;74189;42.124;24.752;2024-01-15T09:37:14;4.10;53.50
80232;DHT22;74189;42.124;24.752;2024-01-15T09:39:40;4.20;53.50
80232;DHT22;74189;42.124;24.752;2024-01-15T09:42:07;4.10;53.00
80232;DHT22;74189;42.124;24.752;2024-01-15T09:44:33;4.10;53.30
80232;DHT22;74189;42.124;24.752;2024-01-15T09:46:59;4.10;53.20
80232;DHT22;74189;42.124;24.752;2024-01-15T09:49:25;3.90;54.00
80232;DHT22;74189;42.124;24.752;2024-01-15T09:51:51;3.70;53.90
80232;DHT22;74189;42.124;24.752;2024-01-15T09:54:17;3.60;54.30
80232;DHT22;74189;42.124;24.752;2024-01-15T09:56:47;3.70;54.30
80232;DHT22;74189;42.124;24.752;2024-01-15T09:59:16;3.60;54.40
80232;DHT22;74189;42.124;24.752;2024-01-15T10:01:44;3.70;54.40
80232;DHT22;74189;42.124;24.752;2024-01-15T10:04:13;3.50;54.60
80232;DHT22;74189;42.124;24.752;2024-01-15T10:06:44;3.50;55.30
80232;DHT22;74189;42.124;24.752;2024-01-15T10:09:12;3.40;55.90
80232;DHT22;74189;42.124;24.752;2024-01-15T10:11:41;3.50;55.40
80232;DHT22;74189;42.124;24.752;2024-01-15T10:14:08;3.50;55.30
80232;DHT22;74189;42.124;24.752;2024-01-15T10:16:34;3.70;55.30
80232;DHT22;74189;42.124;24.752;2024-01-15T10:18:59;3.80;55.40
80232;DHT22;74189;42.124;24.752;2024-01-15T10:21:25;3.80;55.10
80232;DHT22;74189;42.124;24.752;2024-01-15T10:23:52;3.80;54.90
80232;DHT22;74189;42.124;24.752;2024-01-15T10:26:17;3.60;55.50
80232;DHT22;74189;42.124;24.752;2024-01-15T10:28:43;3.70;56.10
80232;DHT22;74189;42.124;24.752;2024-01-15T10:31:09;3.80;56.10
80232;DHT22;74189;42.124;24.752;2024-01-15T10:33:35;3.80;55.30
80232;DHT22;74189;42.124;24.752;2024-01-15T10:36:01;3.80;55.50
80232;DHT22;74189;42.124;24.752;2024-01-15T10:38:27;3.80;55.20
80232;DHT22;74189;42.124;24.752;2024-01-15T10:40:56;3.90;55.00
80232;DHT22;74189;42.124;24.752;2024-01-15T10:43:22;3.90;54.90
80232;DHT22;74189;42.124;24.752;2024-01-15T10:45:49;3.80;55.00
80232;DHT22;74189;42.124;24.752;2024-01-15T10:48:17;3.90;54.60
80232;DHT22;74189;42.124;24.752;2024-01-15T10:50:46;4.00;54.40
80232;DHT22;74189;42.124;24.752;2024-01-15T10:53:16;4.00;54.20
80232;DHT22;74189;42.124;24.752;2024-01-15T10:55:42;4.10;54.30
80232;DHT22;74189;42.124;24.752;2024-01-15T10:58:09;4.00;54.80
80232;DHT22;74189;42.124;24.752;2024-01-15T11:00:38;4.00;54.30
80232;DHT22;74189;42.124;24.752;2024-01-15T11:03:05;4.00;54.10
80232;DHT22;74189;42.124;24.752;2024-01-15T11:05:37;4.20;54.30
80232;DHT22;74189;42.124;24.752;2024-01-15T11:08:09;4.40;53.90
80232;DHT22;74189;42.124;24.752;2024-01-15T11:10:40;4.30;53.60
80232;DHT22;74189;42.124;24.752;2024-01-15T11:16:01;4.50;54.10
80232;DHT22;74189;42.124;24.752;2024-01-15T11:18:29;4.60;53.40
80232;DHT22;74189;42.124;24.752;2024-01-15T11:21:20;4.60;53.40
80232;DHT22;74189;42.124;24.752;2024-01-15T11:23:56;4.70;52.90
80232;DHT22;74189;42.124;24.752;2024-01-15T11:29:08;4.90;52.10
80232;DHT22;74189;42.124;24.752;2024-01-15T11:34:06;4.90;52.40
80232;DHT22;74189;42.124;24.752;2024-01-15T11:41:59;5.20;52.70
80232;DHT22;74189;42.124;24.752;2024-01-15T11:44:26;5.20;52.30
80232;DHT22;74189;42.124;24.752;2024-01-15T11:50:04;5.30;52.30
80232;DHT22;74189;42.124;24.752;2024-01-15T11:52:34;5.40;52.20
